createdAt,value
2019-04-21T00:00:15.097Z,0.00
2019-04-21T00:01:12.571Z,0.00
2019-04-21T00:02:14.803Z,0.00
2019-04-21T00:03:19.304Z,0.00
2019-04-21T00:04:24.745Z,0.00
2019-04-21T00:05:37.336Z,0.00
2019-04-21T00:06:32.198Z,0.00
2019-04-21T00:07:31.562Z,0.00
2019-04-21T00:08:39.523Z,0.00
2019-04-21T00:09:34.356Z,0.00
2019-04-21T00:10:33.531Z,0.00
2019-04-21T00:11:29.803Z,0.00
2019-04-21T00:12:28.465Z,0.00
2019-04-21T00:13:31.296Z,0.00
2019-04-21T00:14:22.084Z,0.00
2019-04-21T00:15:20.208Z,0.00
2019-04-21T00:16:14.142Z,0.00
2019-04-21T00:17:15.638Z,0.00
2019-04-21T00:18:12.275Z,0.00
2019-04-21T00:19:18.162Z,0.00
2019-04-21T00:20:22.708Z,0.00
2019-04-21T00:21:22.539Z,0.00
2019-04-21T00:22:23.286Z,0.00
2019-04-21T00:23:31.489Z,0.00
2019-04-21T00:24:28.952Z,0.00
2019-04-21T00:25:24.885Z,0.00
2019-04-21T00:26:31.807Z,0.00
2019-04-21T00:27:28.079Z,0.00
2019-04-21T00:28:36.268Z,0.00
2019-04-21T00:29:33.887Z,0.00
2019-04-21T00:30:36.726Z,0.00
2019-04-21T00:31:32.366Z,0.00
2019-04-21T00:32:25.684Z,0.00
2019-04-21T00:33:18.864Z,0.00
2019-04-21T00:34:11.397Z,0.00
2019-04-21T00:35:15.886Z,0.00
2019-04-21T00:36:18.578Z,0.00
2019-04-21T00:37:21.642Z,0.00
2019-04-21T00:38:32.381Z,0.00
2019-04-21T00:40:37.736Z,0.00
2019-04-21T00:41:34.004Z,0.00
2019-04-21T00:42:29.082Z,0.00
2019-04-21T00:43:30.674Z,0.00
2019-04-21T00:44:21.498Z,0.00
2019-04-21T00:45:23.598Z,0.00
2019-04-21T00:46:28.747Z,0.00
2019-04-21T00:47:34.067Z,0.00
2019-04-21T00:48:36.430Z,0.00
2019-04-21T00:49:27.128Z,0.00
2019-04-21T00:50:40.788Z,0.00
2019-04-21T00:51:40.913Z,0.00
2019-04-21T00:52:47.531Z,0.00
2019-04-21T00:53:48.419Z,0.00
2019-04-21T00:54:42.344Z,0.00
2019-04-21T00:55:38.495Z,0.00
2019-04-21T00:56:34.163Z,0.00
2019-04-21T00:57:41.331Z,0.00
2019-04-21T00:58:33.109Z,0.00
2019-04-21T00:59:33.518Z,0.00
2019-04-21T01:00:32.588Z,0.00
2019-04-21T01:01:31.211Z,0.00
2019-04-21T01:02:41.343Z,0.00
2019-04-21T01:03:43.513Z,0.00
2019-04-21T01:04:36.866Z,0.00
2019-04-21T01:05:39.844Z,0.00
2019-04-21T01:06:36.900Z,0.00
2019-04-21T01:07:31.984Z,0.00
2019-04-21T01:08:31.088Z,0.00
2019-04-21T01:09:30.145Z,0.00
2019-04-21T01:10:24.178Z,0.00
2019-04-21T01:11:35.102Z,0.00
2019-04-21T01:12:37.681Z,0.00
2019-04-21T01:13:45.395Z,0.00
2019-04-21T01:14:46.888Z,0.00
2019-04-21T01:15:37.541Z,0.00
2019-04-21T01:16:39.327Z,0.00
2019-04-21T01:17:35.599Z,0.00
2019-04-21T01:18:32.629Z,0.00
2019-04-21T01:19:33.205Z,0.00
2019-04-21T01:20:17.174Z,0.00
2019-04-21T01:21:14.225Z,0.00
2019-04-21T01:22:12.922Z,0.00
2019-04-21T01:23:12.956Z,0.00
2019-04-21T01:24:19.694Z,0.00
2019-04-21T01:25:22.887Z,0.00
2019-04-21T01:26:22.622Z,0.00
2019-04-21T01:27:26.297Z,0.00
2019-04-21T01:28:28.995Z,0.00
2019-04-21T01:29:36.901Z,0.00
2019-04-21T01:30:35.370Z,0.00
2019-04-21T01:31:30.003Z,0.00
2019-04-21T01:32:34.396Z,0.00
2019-04-21T01:33:38.198Z,0.00
2019-04-21T01:34:37.220Z,0.00
2019-04-21T01:35:35.437Z,0.00
2019-04-21T01:36:33.329Z,0.00
2019-04-21T01:37:42.194Z,0.00
2019-04-21T01:38:53.765Z,0.00
2019-04-21T01:39:35.033Z,0.00
2019-04-21T01:40:34.788Z,0.00
2019-04-21T01:41:41.342Z,0.00
2019-04-21T01:42:33.395Z,0.00
2019-04-21T01:43:27.781Z,0.00
2019-04-21T01:44:36.215Z,0.00
2019-04-21T01:45:35.569Z,0.00
2019-04-21T01:46:29.659Z,0.00
2019-04-21T01:47:32.282Z,0.00
2019-04-21T01:48:33.332Z,0.00
2019-04-21T01:49:28.613Z,0.00
2019-04-21T01:50:29.554Z,0.00
2019-04-21T01:51:28.146Z,0.00
2019-04-21T01:52:43.874Z,0.00
2019-04-21T01:53:38.212Z,0.00
2019-04-21T01:54:35.338Z,0.00
2019-04-21T01:55:36.679Z,0.00
2019-04-21T01:56:37.061Z,0.00
2019-04-21T01:57:29.420Z,0.00
2019-04-21T01:58:27.060Z,0.00
2019-04-21T01:59:27.828Z,0.00
2019-04-21T02:00:35.064Z,0.00
2019-04-21T02:01:33.549Z,0.00
2019-04-21T02:02:36.621Z,0.00
2019-04-21T02:03:54.468Z,0.00
2019-04-21T02:04:41.794Z,0.00
2019-04-21T02:05:37.528Z,0.00
2019-04-21T02:06:37.789Z,0.00
2019-04-21T02:07:34.245Z,0.00
2019-04-21T02:08:34.039Z,0.00
2019-04-21T02:09:33.185Z,0.00
2019-04-21T02:10:41.480Z,0.00
2019-04-21T02:11:35.512Z,0.00
2019-04-21T02:12:40.560Z,0.00
2019-04-21T02:13:35.532Z,0.00
2019-04-21T02:14:40.908Z,0.00
2019-04-21T02:15:41.963Z,0.00
2019-04-21T02:16:34.622Z,0.00
2019-04-21T02:17:38.680Z,0.00
2019-04-21T02:18:33.475Z,0.00
2019-04-21T02:19:31.607Z,0.00
2019-04-21T02:20:26.953Z,0.00
2019-04-21T02:21:31.915Z,0.00
2019-04-21T02:22:46.453Z,0.00
2019-04-21T02:23:38.213Z,0.00
2019-04-21T02:24:45.149Z,0.00
2019-04-21T02:25:40.043Z,0.00
2019-04-21T02:26:47.172Z,0.00
2019-04-21T02:27:41.190Z,0.00
2019-04-21T02:28:42.715Z,0.00
2019-04-21T02:29:42.685Z,0.00
2019-04-21T02:30:55.167Z,0.00
2019-04-21T02:31:48.481Z,0.00
2019-04-21T02:32:48.348Z,0.00
2019-04-21T02:34:02.660Z,0.00
2019-04-21T02:34:52.872Z,0.00
2019-04-21T02:35:55.936Z,0.00
2019-04-21T02:36:52.925Z,0.00
2019-04-21T02:37:55.169Z,0.00
2019-04-21T02:39:00.291Z,0.00
2019-04-21T02:39:48.930Z,0.00
2019-04-21T02:40:46.518Z,0.00
2019-04-21T02:41:50.541Z,0.00
2019-04-21T02:45:03.907Z,0.00
2019-04-21T02:45:51.819Z,0.00
2019-04-21T02:48:59.805Z,0.00
2019-04-21T02:49:56.485Z,0.00
2019-04-21T02:50:47.594Z,0.00
2019-04-21T02:51:54.415Z,0.00
2019-04-21T02:54:24.999Z,0.00
2019-04-21T02:55:44.666Z,0.00
2019-04-21T02:57:51.893Z,0.00
2019-04-21T02:58:52.915Z,0.00
2019-04-21T03:00:42.787Z,0.00
2019-04-21T03:01:49.047Z,0.00
2019-04-21T03:03:41.777Z,0.00
2019-04-21T03:05:05.210Z,0.00
2019-04-21T03:06:59.404Z,0.00
2019-04-21T03:07:55.390Z,0.00
2019-04-21T03:08:50.386Z,0.00
2019-04-21T03:09:44.841Z,0.00
2019-04-21T03:11:52.884Z,0.00
2019-04-21T03:12:59.750Z,0.00
2019-04-21T03:13:50.650Z,0.00
2019-04-21T03:14:56.434Z,0.00
2019-04-21T03:15:55.603Z,0.00
2019-04-21T03:16:49.328Z,0.00
2019-04-21T03:17:54.984Z,0.00
2019-04-21T03:19:50.076Z,0.00
2019-04-21T03:20:53.309Z,0.00
2019-04-21T03:21:52.405Z,0.00
2019-04-21T03:25:52.101Z,0.00
2019-04-21T03:29:05.878Z,0.00
2019-04-21T03:36:19.020Z,0.00
2019-04-21T03:37:43.210Z,0.00
2019-04-21T03:38:41.037Z,4.00
2019-04-21T03:39:50.334Z,4.00
2019-04-21T03:40:54.971Z,4.00
2019-04-21T03:42:07.491Z,4.00
2019-04-21T03:42:54.984Z,4.00
2019-04-21T03:44:45.348Z,12.00
2019-04-21T03:45:46.563Z,12.00
2019-04-21T03:46:53.092Z,12.00
2019-04-21T03:47:49.176Z,12.00
2019-04-21T03:52:53.434Z,28.00
2019-04-21T03:53:46.461Z,28.00
2019-04-21T03:54:56.493Z,32.00
2019-04-21T03:58:55.903Z,44.00
2019-04-21T03:59:55.646Z,48.00
2019-04-21T04:00:59.499Z,56.00
2019-04-21T04:01:48.893Z,60.00
2019-04-21T04:02:55.139Z,68.00
2019-04-21T04:06:03.380Z,80.00
2019-04-21T04:06:55.608Z,88.00
2019-04-21T04:07:59.220Z,92.00
2019-04-21T04:09:09.229Z,100.00
2019-04-21T04:09:54.073Z,108.00
2019-04-21T04:10:51.941Z,112.00
2019-04-21T04:12:52.894Z,124.00
2019-04-21T04:13:55.605Z,132.00
2019-04-21T04:16:01.823Z,144.00
2019-04-21T04:17:49.914Z,160.00
2019-04-21T04:18:53.108Z,164.00
2019-04-21T04:19:48.549Z,172.00
2019-04-21T04:20:51.751Z,180.00
2019-04-21T04:23:55.453Z,200.00
2019-04-21T04:25:07.465Z,204.00
2019-04-21T04:25:53.612Z,212.00
2019-04-21T04:26:47.527Z,220.00
2019-04-21T04:27:59.948Z,224.00
2019-04-21T04:29:51.305Z,240.00
2019-04-21T04:30:53.799Z,248.00
2019-04-21T04:31:45.628Z,252.00
2019-04-21T04:33:08.053Z,260.00
2019-04-21T04:33:57.775Z,264.00
2019-04-21T04:38:03.367Z,292.00
2019-04-21T04:39:02.191Z,296.00
2019-04-21T04:39:57.063Z,300.00
2019-04-21T04:41:02.874Z,304.00
2019-04-21T04:41:55.044Z,312.00
2019-04-21T04:43:55.243Z,324.00
2019-04-21T04:47:51.299Z,344.00
2019-04-21T04:48:59.396Z,352.00
2019-04-21T04:52:09.632Z,364.00
2019-04-21T04:52:44.109Z,368.00
2019-04-21T04:53:48.787Z,376.00
2019-04-21T04:55:46.123Z,384.00
2019-04-21T04:56:56.343Z,392.00
2019-04-21T04:59:19.329Z,396.00
2019-04-21T04:59:50.214Z,404.00
2019-04-21T05:01:00.368Z,408.00
2019-04-21T05:02:52.304Z,416.00
2019-04-21T05:04:02.642Z,420.00
2019-04-21T05:04:55.184Z,424.00
2019-04-21T05:06:00.842Z,428.00
2019-04-21T05:08:08.323Z,436.00
2019-04-21T05:09:10.886Z,440.00
2019-04-21T05:10:59.063Z,448.00
2019-04-21T05:12:44.249Z,452.00
2019-04-21T05:13:55.043Z,456.00
2019-04-21T05:15:50.518Z,464.00
2019-04-21T05:16:54.883Z,468.00
2019-04-21T05:18:52.802Z,476.00
2019-04-21T05:20:05.461Z,480.00
2019-04-21T05:20:52.647Z,480.00
2019-04-21T05:22:05.510Z,488.00
2019-04-21T05:22:44.914Z,488.00
2019-04-21T05:23:45.659Z,492.00
2019-04-21T05:24:37.935Z,496.00
2019-04-21T05:25:38.830Z,496.00
2019-04-21T05:26:39.231Z,500.00
2019-04-21T05:27:33.563Z,508.00
2019-04-21T05:28:32.879Z,508.00
2019-04-21T05:29:49.549Z,512.00
2019-04-21T05:30:50.063Z,516.00
2019-04-21T05:31:44.593Z,516.00
2019-04-21T05:32:45.169Z,520.00
2019-04-21T05:33:49.556Z,524.00
2019-04-21T05:34:38.966Z,528.00
2019-04-21T05:35:43.826Z,528.00
2019-04-21T05:36:48.977Z,532.00
2019-04-21T05:37:43.437Z,536.00
2019-04-21T05:38:39.149Z,536.00
2019-04-21T05:39:37.774Z,540.00
2019-04-21T05:40:35.883Z,540.00
2019-04-21T05:41:31.282Z,548.00
2019-04-21T05:42:36.839Z,548.00
2019-04-21T05:43:39.834Z,552.00
2019-04-21T05:44:52.853Z,556.00
2019-04-21T05:45:46.025Z,556.00
2019-04-21T05:46:50.666Z,560.00
2019-04-21T05:47:50.113Z,560.00
2019-04-21T05:48:39.162Z,564.00
2019-04-21T05:49:38.696Z,564.00
2019-04-21T05:50:37.772Z,572.00
2019-04-21T05:51:41.152Z,572.00
2019-04-21T05:52:33.954Z,572.00
2019-04-21T05:53:40.477Z,576.00
2019-04-21T05:54:52.872Z,580.00
2019-04-21T05:56:08.565Z,584.00
2019-04-21T05:56:42.359Z,584.00
2019-04-21T05:57:38.423Z,588.00
2019-04-21T05:58:43.619Z,588.00
2019-04-21T05:59:43.748Z,592.00
2019-04-21T06:00:59.186Z,596.00
2019-04-21T06:01:48.587Z,596.00
2019-04-21T06:02:51.000Z,600.00
2019-04-21T06:05:53.352Z,608.00
2019-04-21T06:06:53.797Z,612.00
2019-04-21T06:07:41.521Z,616.00
2019-04-21T06:08:42.287Z,616.00
2019-04-21T06:09:52.558Z,620.00
2019-04-21T06:10:49.514Z,620.00
2019-04-21T06:11:47.533Z,624.00
2019-04-21T06:12:52.205Z,628.00
2019-04-21T06:13:51.622Z,628.00
2019-04-21T06:14:49.477Z,632.00
2019-04-21T06:15:50.297Z,632.00
2019-04-21T06:16:49.417Z,640.00
2019-04-21T06:17:49.543Z,640.00
2019-04-21T06:18:47.061Z,640.00
2019-04-21T06:19:52.788Z,644.00
2019-04-21T06:20:46.797Z,648.00
2019-04-21T06:21:47.851Z,648.00
2019-04-21T06:22:48.982Z,652.00
2019-04-21T06:23:41.980Z,656.00
2019-04-21T06:24:54.666Z,656.00
2019-04-21T06:25:54.539Z,660.00
2019-04-21T06:27:04.938Z,660.00
2019-04-21T06:27:49.476Z,668.00
2019-04-21T06:28:46.753Z,668.00
2019-04-21T06:29:43.898Z,668.00
2019-04-21T06:30:53.058Z,676.00
2019-04-21T06:33:52.009Z,684.00
2019-04-21T06:34:59.806Z,688.00
2019-04-21T06:36:08.992Z,692.00
2019-04-21T06:36:47.413Z,692.00
2019-04-21T06:38:58.224Z,700.00
2019-04-21T06:40:50.162Z,708.00
2019-04-21T06:41:37.947Z,712.00
2019-04-21T06:42:50.255Z,712.00
2019-04-21T06:44:01.418Z,716.00
2019-04-21T06:44:54.300Z,720.00
2019-04-21T06:45:50.719Z,720.00
2019-04-21T06:46:59.320Z,724.00
2019-04-21T06:48:06.292Z,732.00
2019-04-21T06:48:49.766Z,732.00
2019-04-21T06:49:46.786Z,732.00
2019-04-21T06:50:52.830Z,740.00
2019-04-21T06:51:45.530Z,744.00
2019-04-21T06:53:57.800Z,748.00
2019-04-21T06:54:49.525Z,756.00
2019-04-21T06:55:44.827Z,756.00
2019-04-21T06:56:45.055Z,760.00
2019-04-21T06:57:43.169Z,768.00
2019-04-21T06:58:45.031Z,772.00
2019-04-21T06:59:43.611Z,772.00
2019-04-21T07:00:42.435Z,776.00
2019-04-21T07:01:55.240Z,780.00
2019-04-21T07:02:54.931Z,788.00
2019-04-21T07:03:49.370Z,792.00
2019-04-21T07:04:50.438Z,792.00
2019-04-21T07:05:52.452Z,800.00
2019-04-21T07:06:50.154Z,800.00
2019-04-21T07:07:57.688Z,804.00
2019-04-21T07:08:55.120Z,808.00
2019-04-21T07:09:52.974Z,808.00
2019-04-21T07:10:48.781Z,816.00
2019-04-21T07:11:43.825Z,816.00
2019-04-21T07:12:46.518Z,820.00
2019-04-21T07:13:49.032Z,824.00
2019-04-21T07:14:43.894Z,828.00
2019-04-21T07:15:43.519Z,832.00
2019-04-21T07:16:51.463Z,836.00
2019-04-21T07:17:45.522Z,840.00
2019-04-21T07:18:56.599Z,844.00
2019-04-21T07:19:49.975Z,852.00
2019-04-21T07:20:49.153Z,856.00
2019-04-21T07:21:50.140Z,860.00
2019-04-21T07:22:47.872Z,864.00
2019-04-21T07:23:57.241Z,832.00
2019-04-21T07:24:45.829Z,836.00
2019-04-21T07:25:45.826Z,840.00
2019-04-21T07:26:51.253Z,848.00
2019-04-21T07:27:49.485Z,852.00
2019-04-21T07:28:49.915Z,852.00
2019-04-21T07:29:50.597Z,856.00
2019-04-21T07:30:57.564Z,860.00
2019-04-21T07:32:47.400Z,876.00
2019-04-21T07:34:14.029Z,880.00
2019-04-21T07:34:49.457Z,884.00
2019-04-21T07:35:43.240Z,888.00
2019-04-21T07:36:52.143Z,896.00
2019-04-21T07:37:49.276Z,900.00
2019-04-21T07:38:45.833Z,908.00
2019-04-21T07:39:45.062Z,912.00
2019-04-21T07:40:40.544Z,920.00
2019-04-21T07:41:42.448Z,924.00
2019-04-21T07:42:43.935Z,924.00
2019-04-21T07:43:38.013Z,928.00
2019-04-21T07:44:43.535Z,940.00
2019-04-21T07:45:43.192Z,944.00
2019-04-21T07:46:38.627Z,948.00
2019-04-21T07:47:46.011Z,948.00
2019-04-21T07:48:46.121Z,956.00
2019-04-21T07:49:46.625Z,960.00
2019-04-21T07:50:46.931Z,964.00
2019-04-21T07:51:52.104Z,972.00
2019-04-21T07:52:52.148Z,980.00
2019-04-21T07:53:52.580Z,984.00
2019-04-21T07:55:03.291Z,988.00
2019-04-21T07:56:33.919Z,1000.00
2019-04-21T07:57:37.588Z,1004.00
2019-04-21T07:58:53.581Z,1048.00
2019-04-21T07:59:55.193Z,1048.00
2019-04-21T08:01:45.358Z,1060.00
2019-04-21T08:02:49.156Z,1064.00
2019-04-21T08:03:45.389Z,1072.00
2019-04-21T08:05:47.161Z,1084.00
2019-04-21T08:06:47.749Z,1084.00
2019-04-21T08:07:57.153Z,1092.00
2019-04-21T08:08:48.955Z,1100.00
2019-04-21T08:10:44.179Z,1068.00
2019-04-21T08:11:44.279Z,1072.00
2019-04-21T08:12:43.274Z,1076.00
2019-04-21T08:13:55.108Z,1080.00
2019-04-21T08:14:45.158Z,1084.00
2019-04-21T08:15:49.420Z,1088.00
2019-04-21T08:16:51.191Z,1092.00
2019-04-21T08:17:47.175Z,1096.00
2019-04-21T08:18:45.460Z,1100.00
2019-04-21T08:19:43.357Z,1100.00
2019-04-21T08:20:45.916Z,1104.00
2019-04-21T08:21:54.625Z,1108.00
2019-04-21T08:23:43.123Z,1120.00
2019-04-21T08:24:50.819Z,1120.00
2019-04-21T08:25:52.956Z,1124.00
2019-04-21T08:26:53.178Z,1132.00
2019-04-21T08:27:54.024Z,1136.00
2019-04-21T08:28:49.493Z,1140.00
2019-04-21T08:29:47.684Z,1144.00
2019-04-21T08:30:42.496Z,1148.00
2019-04-21T08:34:19.884Z,1160.00
2019-04-21T08:34:55.950Z,1164.00
2019-04-21T08:36:47.186Z,1168.00
2019-04-21T08:37:43.271Z,1172.00
2019-04-21T08:38:48.405Z,1180.00
2019-04-21T08:39:58.078Z,1180.00
2019-04-21T08:41:03.646Z,1184.00
2019-04-21T08:41:45.270Z,1188.00
2019-04-21T08:42:45.061Z,1192.00
2019-04-21T08:43:44.603Z,1204.00
2019-04-21T08:44:46.663Z,1216.00
2019-04-21T08:45:48.199Z,1224.00
2019-04-21T08:46:49.221Z,1236.00
2019-04-21T08:47:45.863Z,1240.00
2019-04-21T08:48:53.018Z,1248.00
2019-04-21T08:49:52.469Z,1248.00
2019-04-21T08:50:53.874Z,1252.00
2019-04-21T08:51:51.984Z,1260.00
2019-04-21T08:52:52.227Z,1268.00
2019-04-21T08:54:51.542Z,1284.00
2019-04-21T08:55:48.997Z,1296.00
2019-04-21T08:56:49.559Z,1340.00
2019-04-21T08:58:05.201Z,1348.00
2019-04-21T08:58:54.676Z,1356.00
2019-04-21T08:59:50.657Z,1360.00
2019-04-21T09:00:48.913Z,1364.00
2019-04-21T09:01:48.856Z,1376.00
2019-04-21T09:02:47.381Z,1372.00
2019-04-21T09:03:52.098Z,1376.00
2019-04-21T09:04:45.844Z,1384.00
2019-04-21T09:05:53.945Z,1392.00
2019-04-21T09:06:58.684Z,1400.00
2019-04-21T09:07:53.692Z,1412.00
2019-04-21T09:08:46.277Z,1420.00
2019-04-21T09:09:47.579Z,1420.00
2019-04-21T09:10:47.319Z,1424.00
2019-04-21T09:11:49.916Z,1428.00
2019-04-21T09:12:46.607Z,1432.00
2019-04-21T09:13:47.762Z,1440.00
2019-04-21T09:14:48.811Z,1444.00
2019-04-21T09:15:44.837Z,1452.00
2019-04-21T09:16:42.628Z,1460.00
2019-04-21T09:17:43.178Z,1468.00
2019-04-21T09:18:41.543Z,1476.00
2019-04-21T09:20:07.994Z,1476.00
2019-04-21T09:20:52.582Z,1480.00
2019-04-21T09:21:51.106Z,1480.00
2019-04-21T09:22:50.639Z,1484.00
2019-04-21T09:23:45.270Z,1492.00
2019-04-21T09:24:46.831Z,1492.00
2019-04-21T09:26:40.667Z,1504.00
2019-04-21T09:27:47.108Z,1512.00
2019-04-21T09:28:40.406Z,1512.00
2019-04-21T09:29:36.749Z,1520.00
2019-04-21T09:30:30.726Z,1524.00
2019-04-21T09:31:33.869Z,1528.00
2019-04-21T09:32:32.561Z,1536.00
2019-04-21T09:33:35.680Z,1540.00
2019-04-21T09:34:34.556Z,1544.00
2019-04-21T09:35:29.149Z,1548.00
2019-04-21T09:36:35.042Z,1548.00
2019-04-21T09:37:40.834Z,1548.00
2019-04-21T09:38:36.525Z,1552.00
2019-04-21T09:39:31.449Z,1556.00
2019-04-21T09:40:34.640Z,1560.00
2019-04-21T09:41:30.060Z,1564.00
2019-04-21T09:42:35.944Z,1572.00
2019-04-21T09:43:37.724Z,1580.00
2019-04-21T09:44:36.097Z,1588.00
2019-04-21T09:45:30.640Z,1588.00
2019-04-21T09:46:29.880Z,1592.00
2019-04-21T09:47:37.998Z,1600.00
2019-04-21T09:48:43.746Z,1604.00
2019-04-21T09:49:31.666Z,1612.00
2019-04-21T09:50:29.555Z,1616.00
2019-04-21T09:51:30.465Z,1624.00
2019-04-21T09:52:38.947Z,1628.00
2019-04-21T09:53:34.474Z,1636.00
2019-04-21T09:54:33.341Z,1644.00
2019-04-21T09:55:39.574Z,1644.00
2019-04-21T09:56:39.504Z,1648.00
2019-04-21T09:57:40.438Z,1652.00
2019-04-21T09:58:37.977Z,1656.00
2019-04-21T09:59:35.575Z,1660.00
2019-04-21T10:00:36.244Z,1664.00
2019-04-21T10:01:47.811Z,1668.00
2019-04-21T10:02:37.611Z,1676.00
2019-04-21T10:03:37.133Z,1676.00
2019-04-21T10:04:31.027Z,1680.00
2019-04-21T10:05:29.852Z,1684.00
2019-04-21T10:06:30.659Z,1684.00
2019-04-21T10:07:35.602Z,1692.00
2019-04-21T10:08:29.965Z,1688.00
2019-04-21T10:09:31.051Z,1692.00
2019-04-21T10:10:30.043Z,1700.00
2019-04-21T10:11:31.121Z,1704.00
2019-04-21T10:12:30.669Z,1700.00
2019-04-21T10:13:30.155Z,1704.00
2019-04-21T10:14:30.915Z,1708.00
2019-04-21T10:15:30.231Z,1712.00
2019-04-21T10:16:30.276Z,1720.00
2019-04-21T10:17:30.308Z,1716.00
2019-04-21T10:18:31.644Z,1720.00
2019-04-21T10:19:31.593Z,1728.00
2019-04-21T10:20:30.876Z,1728.00
2019-04-21T10:21:31.601Z,1724.00
2019-04-21T10:22:31.004Z,1728.00
2019-04-21T10:23:31.610Z,1736.00
2019-04-21T10:24:30.693Z,1744.00
2019-04-21T10:25:30.740Z,1748.00
2019-04-21T10:26:30.669Z,1752.00
2019-04-21T10:27:31.517Z,1756.00
2019-04-21T10:28:30.981Z,1756.00
2019-04-21T10:29:32.991Z,1764.00
2019-04-21T10:30:30.809Z,1776.00
2019-04-21T10:31:30.846Z,1784.00
2019-04-21T10:32:32.276Z,1788.00
2019-04-21T10:33:30.924Z,1800.00
2019-04-21T10:34:31.484Z,1808.00
2019-04-21T10:35:31.214Z,1808.00
2019-04-21T10:36:31.060Z,1812.00
2019-04-21T10:37:42.818Z,1764.00
2019-04-21T10:38:38.005Z,1764.00
2019-04-21T10:39:31.606Z,1764.00
2019-04-21T10:40:33.834Z,1768.00
2019-04-21T10:41:31.235Z,1768.00
2019-04-21T10:42:31.329Z,1776.00
2019-04-21T10:43:31.328Z,1780.00
2019-04-21T10:44:31.556Z,1780.00
2019-04-21T10:45:32.697Z,1776.00
2019-04-21T10:46:32.867Z,1784.00
2019-04-21T10:47:31.469Z,1776.00
2019-04-21T10:48:34.370Z,1780.00
2019-04-21T10:49:32.663Z,1784.00
2019-04-21T10:50:31.607Z,1792.00
2019-04-21T10:51:32.806Z,1788.00
2019-04-21T10:52:32.906Z,1792.00
2019-04-21T10:53:31.705Z,1792.00
2019-04-21T10:54:49.133Z,1784.00
2019-04-21T10:55:44.604Z,1792.00
2019-04-21T10:56:37.997Z,1788.00
2019-04-21T10:57:32.671Z,1788.00
2019-04-21T10:58:32.248Z,1792.00
2019-04-21T10:59:33.127Z,1784.00
2019-04-21T11:00:32.383Z,1792.00
2019-04-21T11:01:32.021Z,1792.00
2019-04-21T11:02:32.908Z,1792.00
2019-04-21T11:03:33.191Z,1800.00
2019-04-21T11:04:36.439Z,1800.00
2019-04-21T11:05:32.623Z,1808.00
2019-04-21T11:06:32.619Z,1812.00
2019-04-21T11:07:38.990Z,1816.00
2019-04-21T11:08:37.858Z,1816.00
2019-04-21T11:09:33.854Z,1816.00
2019-04-21T11:10:32.373Z,1820.00
2019-04-21T11:11:32.413Z,1824.00
2019-04-21T11:12:33.452Z,1828.00
2019-04-21T11:13:32.661Z,1836.00
2019-04-21T11:14:33.451Z,1844.00
2019-04-21T11:15:32.784Z,1844.00
2019-04-21T11:16:33.219Z,1852.00
2019-04-21T11:17:32.654Z,1852.00
2019-04-21T11:18:33.966Z,1852.00
2019-04-21T11:19:32.853Z,1856.00
2019-04-21T11:20:33.058Z,1856.00
2019-04-21T11:21:32.810Z,1856.00
2019-04-21T11:22:34.946Z,1856.00
2019-04-21T11:23:33.190Z,1856.00
2019-04-21T11:24:33.341Z,1856.00
2019-04-21T11:25:33.725Z,1860.00
2019-04-21T11:26:33.819Z,1860.00
2019-04-21T11:27:33.210Z,1864.00
2019-04-21T11:28:34.506Z,1860.00
2019-04-21T11:29:33.175Z,1860.00
2019-04-21T11:30:33.709Z,1864.00
2019-04-21T11:31:33.454Z,1864.00
2019-04-21T11:32:33.249Z,1864.00
2019-04-21T11:33:33.424Z,1860.00
2019-04-21T11:34:33.504Z,1860.00
2019-04-21T11:35:33.366Z,1856.00
2019-04-21T11:36:33.406Z,1852.00
2019-04-21T11:37:34.631Z,1856.00
2019-04-21T11:38:44.727Z,1860.00
2019-04-21T11:39:42.247Z,1844.00
2019-04-21T11:40:34.023Z,1844.00
2019-04-21T11:41:34.001Z,1840.00
2019-04-21T11:42:33.667Z,1840.00
2019-04-21T11:43:34.973Z,1840.00
2019-04-21T11:44:35.186Z,1840.00
2019-04-21T11:45:34.692Z,1836.00
2019-04-21T11:46:34.214Z,1836.00
2019-04-21T11:47:34.265Z,1836.00
2019-04-21T11:48:34.540Z,1836.00
2019-04-21T11:49:34.831Z,1836.00
2019-04-21T11:50:35.073Z,1832.00
2019-04-21T11:51:35.163Z,1832.00
2019-04-21T11:52:34.759Z,1828.00
2019-04-21T11:53:34.866Z,1828.00
2019-04-21T11:54:35.067Z,1824.00
2019-04-21T11:55:39.184Z,1824.00
2019-04-21T11:56:34.814Z,1824.00
2019-04-21T11:57:38.303Z,1840.00
2019-04-21T11:58:34.285Z,1836.00
2019-04-21T11:59:35.478Z,1836.00
2019-04-21T12:00:35.740Z,1836.00
2019-04-21T12:01:34.406Z,1832.00
2019-04-21T12:02:35.326Z,1828.00
2019-04-21T12:03:35.746Z,1824.00
2019-04-21T12:04:35.695Z,1824.00
2019-04-21T12:05:35.231Z,1824.00
2019-04-21T12:06:40.924Z,1824.00
2019-04-21T12:07:35.369Z,1824.00
2019-04-21T12:08:40.439Z,1824.00
2019-04-21T12:09:35.439Z,1824.00
2019-04-21T12:10:35.536Z,1820.00
2019-04-21T12:11:35.673Z,1812.00
2019-04-21T12:12:35.115Z,1812.00
2019-04-21T12:13:36.112Z,1812.00
2019-04-21T12:14:36.265Z,1812.00
2019-04-21T12:15:34.970Z,1808.00
2019-04-21T12:16:35.245Z,1808.00
2019-04-21T12:17:36.122Z,1808.00
2019-04-21T12:18:35.088Z,1804.00
2019-04-21T12:19:35.137Z,1804.00
2019-04-21T12:20:35.543Z,1800.00
2019-04-21T12:21:50.584Z,1800.00
2019-04-21T12:22:35.706Z,1788.00
2019-04-21T12:23:36.418Z,1796.00
2019-04-21T12:24:36.822Z,1788.00
2019-04-21T12:25:36.766Z,1788.00
2019-04-21T12:26:35.942Z,1784.00
2019-04-21T12:27:36.060Z,1788.00
2019-04-21T12:28:35.494Z,1784.00
2019-04-21T12:29:35.633Z,1780.00
2019-04-21T12:30:35.777Z,1784.00
2019-04-21T12:31:35.897Z,1776.00
2019-04-21T12:32:35.979Z,1788.00
2019-04-21T12:33:36.230Z,1800.00
2019-04-21T12:34:36.245Z,1792.00
2019-04-21T12:35:35.776Z,1792.00
2019-04-21T12:36:35.885Z,1788.00
2019-04-21T12:37:37.084Z,1784.00
2019-04-21T12:38:46.225Z,1776.00
2019-04-21T12:39:36.872Z,1772.00
2019-04-21T12:40:36.730Z,1764.00
2019-04-21T12:41:36.277Z,1060.00
2019-04-21T12:42:38.718Z,1756.00
2019-04-21T12:43:36.969Z,1756.00
2019-04-21T12:44:37.164Z,1756.00
2019-04-21T12:45:36.175Z,1748.00
2019-04-21T12:46:36.218Z,1752.00
2019-04-21T12:47:37.658Z,1748.00
2019-04-21T12:48:36.298Z,1752.00
2019-04-21T12:49:36.338Z,1744.00
2019-04-21T12:50:36.385Z,1740.00
2019-04-21T12:51:37.695Z,1736.00
2019-04-21T12:52:37.722Z,1736.00
2019-04-21T12:53:36.500Z,1732.00
2019-04-21T12:54:37.670Z,1732.00
2019-04-21T12:55:40.517Z,1728.00
2019-04-21T12:56:37.595Z,1724.00
2019-04-21T12:57:37.231Z,1724.00
2019-04-21T12:58:37.384Z,1720.00
2019-04-21T12:59:37.827Z,1720.00
2019-04-21T13:00:36.904Z,1712.00
2019-04-21T13:01:37.053Z,1716.00
2019-04-21T13:02:37.926Z,1716.00
2019-04-21T13:03:37.613Z,1700.00
2019-04-21T13:04:37.860Z,1696.00
2019-04-21T13:05:37.891Z,1696.00
2019-04-21T13:06:37.339Z,1684.00
2019-04-21T13:07:37.393Z,1676.00
2019-04-21T13:08:45.622Z,1672.00
2019-04-21T13:09:37.563Z,1668.00
2019-04-21T13:10:38.103Z,1664.00
2019-04-21T13:11:37.341Z,1664.00
2019-04-21T13:12:37.970Z,1656.00
2019-04-21T13:13:37.729Z,1648.00
2019-04-21T13:14:37.892Z,1648.00
2019-04-21T13:15:37.676Z,1640.00
2019-04-21T13:16:37.432Z,1640.00
2019-04-21T13:17:37.483Z,1632.00
2019-04-21T13:18:37.513Z,1632.00
2019-04-21T13:19:38.957Z,1628.00
2019-04-21T13:20:38.180Z,1624.00
2019-04-21T13:21:38.144Z,1632.00
2019-04-21T13:22:37.673Z,1616.00
2019-04-21T13:23:39.057Z,1616.00
2019-04-21T13:24:37.969Z,1608.00
2019-04-21T13:25:38.125Z,1596.00
2019-04-21T13:26:45.826Z,1592.00
2019-04-21T13:27:38.771Z,1592.00
2019-04-21T13:28:37.916Z,1592.00
2019-04-21T13:29:38.553Z,1584.00
2019-04-21T13:30:38.134Z,1576.00
2019-04-21T13:31:38.424Z,1564.00
2019-04-21T13:32:39.171Z,1552.00
2019-04-21T13:33:38.119Z,1548.00
2019-04-21T13:34:38.161Z,1540.00
2019-04-21T13:35:39.122Z,1528.00
2019-04-21T13:36:39.262Z,1528.00
2019-04-21T13:37:39.524Z,1520.00
2019-04-21T13:38:50.490Z,1512.00
2019-04-21T13:40:01.541Z,1512.00
2019-04-21T13:40:53.421Z,1508.00
2019-04-21T13:41:53.321Z,1508.00
2019-04-21T13:42:45.353Z,1504.00
2019-04-21T13:43:39.172Z,1500.00
2019-04-21T13:44:39.181Z,1504.00
2019-04-21T13:45:39.495Z,1496.00
2019-04-21T13:46:38.725Z,1472.00